Time;durP1;ratioP1;P1;durP2;ratioP2;P2;SDS_P1;SDS_P2;PMS_P1;PMS_P2;Temp;Humidity;BMP_temperature;BMP_pressure;BME280_temperature;BME280_humidity;BME280_pressure;Samples;Min_cycle;Max_cycle;Signal;HPM_P1;HPM_P2
2022/07/21 00:02:18;;;;;;;5.25;4.40;;;;;;;19.72;76.67;100068.88;5033914;28;20045;-83
2022/07/21 00:04:43;;;;;;;7.00;4.80;;;;;;;19.75;76.40;100077.09;5052066;28;20049;-83
2022/07/21 00:07:09;;;;;;;5.97;4.97;;;;;;;19.73;76.08;100073.25;5051963;28;20045;-80
2022/07/21 00:09:35;;;;;;;5.28;4.70;;;;;;;19.66;76.95;100073.66;5033766;28;20094;-80
2022/07/21 00:12:02;;;;;;;5.95;4.60;;;;;;;19.62;77.13;100073.13;5052214;28;20040;-80
2022/07/21 00:14:28;;;;;;;5.10;4.60;;;;;;;19.53;77.65;100065.66;5051393;28;20036;-80
2022/07/21 00:16:53;;;;;;;6.53;4.72;;;;;;;19.57;78.08;100065.41;5051942;28;20045;-81
2022/07/21 00:19:19;;;;;;;8.27;4.78;;;;;;;19.55;78.25;100066.69;5051372;28;20037;-80
2022/07/21 00:21:44;;;;;;;5.07;4.38;;;;;;;19.59;77.41;100072.09;5052139;28;20083;-80
2022/07/21 00:24:10;;;;;;;10.40;4.80;;;;;;;19.50;78.11;100069.44;5033917;28;20461;-80
2022/07/21 00:26:35;;;;;;;6.65;4.57;;;;;;;19.42;78.25;100071.13;5050748;28;20574;-80
2022/07/21 00:29:01;;;;;;;6.70;4.95;;;;;;;19.37;78.84;100069.78;5033796;28;20593;-78
2022/07/21 00:31:27;;;;;;;6.93;4.70;;;;;;;19.40;79.09;100074.44;5051309;28;20044;-80
2022/07/21 00:33:52;;;;;;;5.50;4.57;;;;;;;19.39;78.58;100072.91;5051433;28;20055;-80
2022/07/21 00:36:21;;;;;;;5.57;4.55;;;;;;;19.35;78.73;100069.53;5051650;28;20041;-80
2022/07/21 00:38:47;;;;;;;4.93;4.22;;;;;;;19.36;77.54;100068.28;5051446;28;20041;-79
2022/07/21 00:41:13;;;;;;;8.38;5.13;;;;;;;19.38;76.14;100065.72;5033757;28;20122;-80
2022/07/21 00:43:39;;;;;;;8.80;4.82;;;;;;;19.37;78.03;100063.44;5016865;28;20037;-80
2022/07/21 00:46:05;;;;;;;5.25;4.28;;;;;;;19.34;78.82;100067.22;5051617;28;20553;-80
2022/07/21 00:48:30;;;;;;;7.60;5.07;;;;;;;19.30;78.42;100056.19;5051275;28;20052;-80
2022/07/21 00:50:56;;;;;;;5.38;4.50;;;;;;;19.26;79.09;100057.66;5029516;28;20043;-80
2022/07/21 00:53:22;;;;;;;5.10;4.20;;;;;;;19.20;78.62;100054.03;5032877;28;20132;-80
2022/07/21 00:55:47;;;;;;;5.25;4.70;;;;;;;19.25;78.82;100068.16;5051383;28;20072;-80
2022/07/21 00:58:13;;;;;;;5.93;4.90;;;;;;;19.15;79.96;100061.16;5033146;28;20033;-80
2022/07/21 01:03:25;;;;;;;8.18;5.13;;;;;;;19.11;79.58;100057.78;5185095;22;20083;-81
2022/07/21 01:05:51;;;;;;;6.60;4.82;;;;;;;19.04;79.32;100047.00;5036666;28;20064;-81
2022/07/21 01:08:17;;;;;;;7.38;5.05;;;;;;;18.97;80.46;100058.63;5071069;28;20059;-81
2022/07/21 01:10:42;;;;;;;6.28;4.55;;;;;;;18.91;80.22;100052.19;5048787;28;20032;-80
2022/07/21 01:13:08;;;;;;;6.90;4.60;;;;;;;18.93;78.83;100066.50;5016693;28;20490;-81
2022/07/21 01:15:33;;;;;;;5.53;4.75;;;;;;;18.88;80.19;100068.03;5001039;28;20106;-79
2022/07/21 01:17:59;;;;;;;6.38;4.82;;;;;;;18.79;80.67;100064.56;5032506;28;20079;-79
2022/07/21 01:20:25;;;;;;;5.43;4.50;;;;;;;18.79;79.93;100067.38;5053342;28;20508;-81
2022/07/21 01:22:54;;;;;;;4.97;4.47;;;;;;;18.73;81.04;100066.53;5053284;28;20040;-81
2022/07/21 01:25:20;;;;;;;7.47;4.85;;;;;;;18.74;80.50;100068.09;5053341;28;20067;-81
2022/07/21 01:27:45;;;;;;;5.65;4.43;;;;;;;18.75;79.73;100070.41;5052964;28;20466;-81
2022/07/21 01:30:12;;;;;;;5.38;4.28;;;;;;;18.78;78.77;100071.44;5053499;28;20127;-81
2022/07/21 01:32:39;;;;;;;6.47;4.95;;;;;;;18.78;78.42;100077.06;5052986;28;20056;-81
2022/07/21 01:35:06;;;;;;;6.85;4.70;;;;;;;18.69;79.64;100071.59;5036744;28;20035;-81
2022/07/21 01:37:36;;;;;;;5.38;4.70;;;;;;;18.59;79.91;100056.94;5072447;28;20080;-81
2022/07/21 01:42:46;;;;;;;6.25;4.70;;;;;;;18.68;80.46;100081.31;5056716;28;20041;-81
2022/07/21 01:45:11;;;;;;;7.47;4.78;;;;;;;18.62;78.60;100062.34;5056435;28;20063;-81
2022/07/21 01:47:36;;;;;;;6.20;4.40;;;;;;;18.59;80.09;100079.41;5074765;28;20526;-81
2022/07/21 01:50:03;;;;;;;4.97;4.40;;;;;;;18.45;80.81;100055.69;5074820;28;20052;-81
2022/07/21 01:52:28;;;;;;;7.22;4.55;;;;;;;18.52;79.44;100068.59;5039695;28;20047;-81
2022/07/21 01:54:54;;;;;;;5.03;4.35;;;;;;;18.46;81.01;100068.47;5074793;28;20141;-81
2022/07/21 01:57:19;;;;;;;5.50;4.60;;;;;;;18.47;82.13;100072.06;5074464;28;20135;-81
2022/07/21 01:59:45;;;;;;;5.80;4.53;;;;;;;18.45;81.71;100060.53;5074495;28;20056;-81
2022/07/21 02:02:11;;;;;;;5.25;4.63;;;;;;;18.41;81.39;100063.56;5039864;28;20853;-81
2022/07/21 02:04:36;;;;;;;7.75;4.70;;;;;;;18.43;80.42;100075.09;5074666;28;20041;-81
2022/07/21 02:07:02;;;;;;;5.45;4.80;;;;;;;18.39;81.49;100066.09;5056156;28;20222;-81
2022/07/21 02:09:28;;;;;;;5.25;4.72;;;;;;;18.39;81.08;100065.31;5056529;28;20055;-81
2022/07/21 02:11:54;;;;;;;6.45;4.68;;;;;;;18.34;81.44;100058.34;5074294;28;20040;-81
2022/07/21 02:14:19;;;;;;;6.28;5.22;;;;;;;18.36;79.99;100060.69;5056524;28;20036;-81
2022/07/21 02:16:45;;;;;;;6.30;4.95;;;;;;;18.37;79.37;100057.38;5074539;28;20044;-81
2022/07/21 02:19:10;;;;;;;5.97;4.85;;;;;;;18.37;79.62;100062.22;5073908;28;20080;-81
2022/07/21 02:21:36;;;;;;;7.45;4.88;;;;;;;18.36;80.43;100061.44;5074509;28;20044;-81
2022/07/21 02:24:02;;;;;;;6.00;4.90;;;;;;;18.28;83.28;100059.56;5056242;28;20171;-81
2022/07/21 02:26:27;;;;;;;6.05;4.80;;;;;;;18.24;83.89;100062.53;5056604;28;20033;-81
2022/07/21 02:28:53;;;;;;;5.70;4.80;;;;;;;18.17;83.82;100055.31;5074085;28;20068;-81
2022/07/21 02:31:18;;;;;;;5.93;4.60;;;;;;;18.16;83.99;100067.03;5039210;28;20052;-82
2022/07/21 02:33:44;;;;;;;6.35;5.05;;;;;;;18.06;84.19;100060.00;5039543;28;20041;-81
2022/07/21 02:36:10;;;;;;;5.30;4.80;;;;;;;18.05;84.31;100059.22;5055508;28;20505;-81
2022/07/21 02:38:35;;;;;;;5.18;4.60;;;;;;;18.02;84.52;100065.81;5074019;28;20111;-81
2022/07/21 02:41:01;;;;;;;5.78;4.50;;;;;;;18.04;83.25;100060.47;5074089;28;20413;-81
2022/07/21 02:43:26;;;;;;;5.05;4.47;;;;;;;18.01;84.21;100063.50;5056056;28;20092;-81
2022/07/21 02:45:52;;;;;;;5.60;4.80;;;;;;;18.06;82.58;100071.22;5056116;28;20083;-81
2022/07/21 02:48:18;;;;;;;6.25;4.60;;;;;;;18.02;82.30;100065.81;5055472;28;20113;-81
2022/07/21 02:50:44;;;;;;;7.15;4.95;;;;;;;17.99;84.09;100055.56;5019152;28;20464;-81
2022/07/21 02:53:22;;;;;;;6.53;5.07;;;;;;;17.90;84.83;100052.88;5035705;28;20048;-81
2022/07/21 02:55:48;;;;;;;5.65;4.82;;;;;;;17.93;83.91;100062.34;5036879;28;20049;-81
2022/07/21 02:58:15;;;;;;;7.18;4.60;;;;;;;17.91;83.36;100064.88;5053472;28;20372;-81
2022/07/21 03:00:49;;;;;;;6.93;4.45;;;;;;;17.86;84.63;100049.50;5049282;28;20451;-81
2022/07/21 03:03:14;;;;;;;7.60;4.68;;;;;;;17.78;84.24;100044.78;5073001;28;20056;-81
2022/07/21 03:05:40;;;;;;;7.32;4.53;;;;;;;17.73;84.73;100059.47;5073646;28;20037;-81
2022/07/21 03:08:06;;;;;;;6.65;4.60;;;;;;;17.68;85.08;100041.28;5073182;28;20037;-81
2022/07/21 03:10:32;;;;;;;5.82;4.45;;;;;;;17.73;84.01;100059.47;5073600;28;20105;-81
2022/07/21 03:12:58;;;;;;;7.78;4.63;;;;;;;17.78;82.45;100067.22;5055328;28;20048;-83
2022/07/21 03:15:23;;;;;;;8.35;4.47;;;;;;;17.70;82.41;100039.56;5055333;28;20041;-83
2022/07/21 03:17:49;;;;;;;11.75;5.35;;;;;;;17.69;83.95;100048.44;5055700;28;20193;-83
2022/07/21 03:20:15;;;;;;;10.38;4.88;;;;;;;17.62;84.49;100051.66;5054984;28;20036;-81
2022/07/21 03:22:40;;;;;;;7.10;4.50;;;;;;;17.52;85.29;100042.53;5054772;28;20046;-84
2022/07/21 03:25:06;;;;;;;6.47;5.13;;;;;;;17.56;84.28;100054.34;5054802;28;20041;-84
2022/07/21 03:27:35;;;;;;;7.13;4.40;;;;;;;17.52;84.80;100055.78;5055493;28;20098;-84
2022/07/21 03:30:06;;;;;;;7.18;4.65;;;;;;;17.55;85.16;100049.22;5055028;28;20132;-84
2022/07/21 03:32:31;;;;;;;9.93;5.28;;;;;;;17.54;85.76;100054.06;5071975;28;20062;-83
2022/07/21 03:34:57;;;;;;;7.00;4.90;;;;;;;17.57;85.14;100044.69;5054953;28;20497;-84
2022/07/21 03:37:22;;;;;;;6.50;4.53;;;;;;;17.56;83.98;100057.13;5073091;28;20470;-84
2022/07/21 03:39:48;;;;;;;5.40;4.50;;;;;;;17.44;87.09;100043.41;5054716;28;20033;-82
2022/07/21 03:42:13;;;;;;;7.97;4.47;;;;;;;17.47;85.70;100046.00;5055077;28;21212;-81
2022/07/21 03:44:39;;;;;;;6.60;4.55;;;;;;;17.46;85.39;100047.28;5073027;28;20028;-81
2022/07/21 03:47:04;;;;;;;4.85;4.22;;;;;;;17.47;84.17;100042.47;5073033;28;20048;-81
2022/07/21 03:49:30;;;;;;;8.35;4.78;;;;;;;17.46;85.12;100052.91;5072833;28;20037;-82
2022/07/21 03:51:56;;;;;;;8.88;5.18;;;;;;;17.42;87.17;100055.13;5073050;28;20083;-81
2022/07/21 03:54:21;;;;;;;6.15;4.70;;;;;;;17.49;85.75;100060.34;5054289;28;20044;-80
2022/07/21 03:56:47;;;;;;;9.13;4.85;;;;;;;17.56;86.65;100062.75;5072792;28;20052;-80
2022/07/21 03:59:12;;;;;;;5.13;4.25;;;;;;;17.62;85.80;100060.84;5072153;28;20085;-80
2022/07/21 04:01:38;;;;;;;6.53;4.72;;;;;;;17.67;86.73;100062.94;5057904;28;20593;-80
2022/07/21 04:04:03;;;;;;;5.70;4.60;;;;;;;17.73;85.88;100059.47;5056137;28;20040;-81
2022/07/21 04:06:29;;;;;;;6.28;4.63;;;;;;;17.78;85.30;100067.22;5072547;28;20485;-81
2022/07/21 04:08:55;;;;;;;7.28;4.88;;;;;;;17.80;84.93;100059.06;5072304;28;20076;-81
2022/07/21 04:11:20;;;;;;;5.28;4.57;;;;;;;17.78;85.14;100061.59;5072091;28;20040;-81
2022/07/21 04:13:46;;;;;;;6.63;5.07;;;;;;;17.82;85.42;100064.97;5072418;28;20067;-81
2022/07/21 04:16:11;;;;;;;7.95;4.75;;;;;;;17.83;85.06;100074.94;5071511;28;20052;-81
2022/07/21 04:18:37;;;;;;;7.75;4.53;;;;;;;17.85;84.78;100072.41;5071639;28;20124;-81
2022/07/21 04:21:03;;;;;;;5.90;4.43;;;;;;;17.76;85.04;100069.72;5053919;28;20110;-81
2022/07/21 04:23:29;;;;;;;7.70;4.53;;;;;;;17.75;85.88;100074.56;5054375;28;20029;-80
2022/07/21 04:25:54;;;;;;;5.32;4.65;;;;;;;17.83;84.93;100075.72;5054444;28;20521;-81
2022/07/21 04:28:20;;;;;;;6.30;4.97;;;;;;;17.89;85.76;100084.22;5037048;28;20098;-81
2022/07/21 04:30:46;;;;;;;6.97;5.00;;;;;;;17.89;84.69;100079.38;5054192;28;20113;-81
2022/07/21 04:33:11;;;;;;;8.63;5.00;;;;;;;17.96;84.34;100083.81;5053630;28;20028;-81
2022/07/21 04:35:37;;;;;;;7.18;4.80;;;;;;;17.99;84.48;100088.47;5054302;28;20493;-80
2022/07/21 04:38:02;;;;;;;7.68;5.47;;;;;;;18.04;84.37;100084.97;5071650;28;20048;-81
2022/07/21 04:40:28;;;;;;;7.10;4.85;;;;;;;18.14;83.99;100084.38;5071453;28;20116;-81
2022/07/21 04:42:53;;;;;;;5.90;4.78;;;;;;;18.26;83.89;100090.16;5053909;28;20048;-81
2022/07/21 04:45:19;;;;;;;11.93;4.82;;;;;;;18.37;83.64;100095.91;5053436;28;20049;-81
2022/07/21 04:47:51;;;;;;;5.82;4.97;;;;;;;18.46;83.55;100099.38;5054208;28;20060;-81
2022/07/21 04:50:18;;;;;;;9.05;4.75;;;;;;;18.51;83.10;100095.88;5037037;28;20115;-81
2022/07/21 04:52:43;;;;;;;6.45;4.50;;;;;;;18.68;82.91;100100.97;5053581;28;20489;-81
2022/07/21 04:55:11;;;;;;;6.30;4.60;;;;;;;18.77;82.35;100089.56;5053503;28;20073;-81
2022/07/21 04:57:42;;;;;;;8.88;4.45;;;;;;;18.85;81.97;100087.88;5071714;28;20501;-81
2022/07/21 05:00:10;;;;;;;12.35;4.75;;;;;;;18.97;81.49;100087.53;5051945;28;20047;-81
2022/07/21 05:02:36;;;;;;;7.38;4.82;;;;;;;19.09;80.62;100088.41;5050069;28;20131;-81
2022/07/21 05:05:02;;;;;;;6.03;4.28;;;;;;;19.22;80.18;100086.00;5050072;28;20569;-81
2022/07/21 05:07:28;;;;;;;7.20;4.55;;;;;;;19.33;80.43;100091.00;5033949;28;20564;-83
2022/07/21 05:09:53;;;;;;;7.22;4.38;;;;;;;19.40;79.66;100091.34;5033727;28;20111;-81
2022/07/21 05:12:19;;;;;;;7.03;4.50;;;;;;;19.55;79.39;100097.63;5036317;28;20044;-80
2022/07/21 05:14:44;;;;;;;6.43;4.70;;;;;;;19.63;78.46;100092.31;5073754;28;20500;-81
2022/07/21 05:17:10;;;;;;;8.15;4.68;;;;;;;19.76;78.21;100100.38;5077996;28;20032;-81
2022/07/21 05:19:35;;;;;;;6.68;4.40;;;;;;;19.88;77.44;100090.75;5077245;28;20048;-81
2022/07/21 05:22:01;;;;;;;5.55;4.22;;;;;;;20.10;77.18;100087.34;5078289;28;20045;-80
2022/07/21 05:24:27;;;;;;;9.25;4.63;;;;;;;20.22;75.92;100092.53;5059284;28;20043;-81
2022/07/21 05:26:52;;;;;;;8.23;4.10;;;;;;;20.36;74.93;100091.63;5078067;28;20608;-81
2022/07/21 05:29:18;;;;;;;5.50;3.78;;;;;;;20.58;73.98;100098.66;5077566;28;20444;-81
2022/07/21 05:31:44;;;;;;;5.00;3.85;;;;;;;20.81;71.30;100098.28;5078037;28;20478;-80
2022/07/21 05:34:10;;;;;;;6.20;3.72;;;;;;;21.06;70.12;100105.03;5059838;28;20055;-80
2022/07/21 05:36:35;;;;;;;5.68;4.03;;;;;;;21.27;68.86;100109.19;5076422;28;20048;-81
2022/07/21 05:39:02;;;;;;;8.73;3.90;;;;;;;21.51;66.90;100103.13;5059375;28;20509;-80
2022/07/21 05:41:28;;;;;;;8.57;3.90;;;;;;;21.69;66.10;100096.19;5059165;28;20028;-81
2022/07/21 05:43:53;;;;;;;6.78;3.50;;;;;;;21.84;65.04;100097.47;5077075;28;20094;-81
2022/07/21 05:46:19;;;;;;;6.95;3.55;;;;;;;22.15;64.00;100107.00;5059376;28;20056;-80
2022/07/21 05:48:44;;;;;;;5.93;3.67;;;;;;;22.39;61.29;100106.44;5077654;28;20040;-81
2022/07/21 05:51:10;;;;;;;7.35;3.95;;;;;;;22.67;60.60;100107.91;5077377;28;20514;-81
2022/07/21 05:53:36;;;;;;;7.22;3.80;;;;;;;22.86;59.77;100110.94;5043093;28;20049;-80
2022/07/21 05:56:01;;;;;;;6.57;4.13;;;;;;;23.13;59.97;100106.47;5077646;28;20059;-81
2022/07/21 05:58:27;;;;;;;10.07;4.30;;;;;;;23.28;59.49;100114.63;5075936;28;20048;-80
2022/07/21 06:01:08;;;;;;;7.70;4.07;;;;;;;23.76;59.74;100112.00;5077419;28;20063;-80
2022/07/21 06:03:39;;;;;;;8.27;4.05;;;;;;;24.12;59.45;100110.66;5061363;28;20051;-80
2022/07/21 06:06:05;;;;;;;6.22;4.18;;;;;;;24.40;58.18;100113.25;5059390;28;20098;-80
2022/07/21 06:08:30;;;;;;;7.15;4.05;;;;;;;24.73;57.21;100112.13;5059144;28;20056;-83
2022/07/21 06:10:56;;;;;;;6.80;3.95;;;;;;;25.03;55.62;100112.78;5077549;28;20032;-83
2022/07/21 06:13:22;;;;;;;12.60;4.55;;;;;;;25.24;54.17;100106.59;5058662;28;20390;-83
2022/07/21 06:15:47;;;;;;;7.57;4.13;;;;;;;25.42;54.11;100108.69;5059391;28;20107;-83
2022/07/21 06:18:13;;;;;;;8.20;4.43;;;;;;;25.73;53.39;100115.72;5059060;28;20048;-83
2022/07/21 06:20:40;;;;;;;8.07;4.20;;;;;;;26.00;51.91;100101.03;5076674;28;20056;-83
2022/07/21 06:23:05;;;;;;;6.03;3.90;;;;;;;26.21;51.45;100103.31;5076207;28;20090;-84
2022/07/21 06:25:31;;;;;;;8.43;4.30;;;;;;;26.37;50.50;100105.06;5073556;28;20053;-83
2022/07/21 06:27:57;;;;;;;7.18;4.35;;;;;;;26.58;49.27;100100.28;5073970;28;20040;-83
2022/07/21 06:30:22;;;;;;;7.22;3.80;;;;;;;26.63;49.69;100095.78;5056084;28;20048;-83
2022/07/21 06:32:48;;;;;;;5.50;3.92;;;;;;;26.77;49.79;100103.03;5056157;28;20047;-83
2022/07/21 06:35:13;;;;;;;5.75;3.83;;;;;;;26.82;48.44;100102.91;5072234;28;20444;-84
2022/07/21 06:37:44;;;;;;;6.40;3.65;;;;;;;27.21;48.35;100110.66;5055985;28;20405;-83
2022/07/21 06:40:10;;;;;;;6.03;3.35;;;;;;;27.27;47.55;100104.81;5072253;28;20045;-83
2022/07/21 06:42:35;;;;;;;7.32;3.70;;;;;;;27.53;46.34;100101.94;5073813;28;20082;-83
2022/07/21 06:45:01;;;;;;;7.05;3.65;;;;;;;27.87;45.38;100110.41;5072380;28;20036;-83
2022/07/21 06:47:26;;;;;;;8.95;3.70;;;;;;;27.75;44.53;100109.16;5073522;28;20045;-82
2022/07/21 06:49:52;;;;;;;4.93;3.67;;;;;;;27.99;44.00;100110.91;5038825;28;20455;-83
2022/07/21 06:52:18;;;;;;;7.63;4.07;;;;;;;28.30;44.46;100107.03;5055541;28;20040;-83
2022/07/21 06:54:43;;;;;;;8.07;3.80;;;;;;;28.43;43.68;100097.63;5055535;28;20178;-83
2022/07/21 06:57:09;;;;;;;6.85;3.60;;;;;;;28.83;43.63;100106.63;5038829;28;20428;-83
2022/07/21 06:59:34;;;;;;;7.43;3.50;;;;;;;29.10;43.05;100113.63;5055366;28;20385;-83
2022/07/21 07:02:00;;;;;;;8.93;4.63;;;;;;;28.54;48.84;100108.72;5055899;28;20102;-81
2022/07/21 07:04:25;;;;;;;9.43;4.55;;;;;;;28.56;48.17;100101.09;5037394;28;20052;-83
2022/07/21 07:06:53;;;;;;;9.00;4.50;;;;;;;28.43;50.18;100109.75;5038906;28;20056;-83
2022/07/21 07:09:19;;;;;;;8.52;4.53;;;;;;;28.60;49.90;100104.38;5072954;28;20048;-83
2022/07/21 07:11:46;;;;;;;8.00;4.20;;;;;;;29.03;48.66;100105.78;5073022;28;20507;-83
2022/07/21 07:14:13;;;;;;;6.63;4.15;;;;;;;28.66;49.42;100104.22;5055250;28;20071;-83
2022/07/21 07:16:39;;;;;;;7.68;4.15;;;;;;;29.34;47.80;100104.59;5073098;28;20099;-83
2022/07/21 07:19:05;;;;;;;7.53;4.35;;;;;;;29.69;45.57;100110.75;5054609;28;20561;-83
2022/07/21 07:21:30;;;;;;;7.53;4.20;;;;;;;30.08;42.89;100104.56;5072526;28;20189;-83
2022/07/21 07:23:56;;;;;;;6.05;4.10;;;;;;;29.90;43.32;100108.53;5071776;28;20045;-80
2022/07/21 07:26:22;;;;;;;9.60;3.88;;;;;;;29.62;43.41;100118.78;5054883;28;20440;-80
2022/07/21 07:28:47;;;;;;;5.30;3.80;;;;;;;29.44;43.95;100114.13;5054838;28;20044;-81
2022/07/21 07:31:13;;;;;;;6.30;3.90;;;;;;;29.33;43.43;100108.78;5054423;28;20043;-81
2022/07/21 07:33:38;;;;;;;6.03;3.90;;;;;;;29.40;43.11;100110.88;5054744;28;20047;-81
2022/07/21 07:36:04;;;;;;;4.97;3.80;;;;;;;29.85;41.58;100112.31;5054129;28;20623;-81
2022/07/21 07:38:30;;;;;;;8.13;4.15;;;;;;;29.92;43.49;100105.88;5072358;28;20080;-81
2022/07/21 07:40:55;;;;;;;13.75;4.40;;;;;;;30.49;42.36;100107.00;5072609;28;20080;-81
2022/07/21 07:43:21;;;;;;;5.63;4.15;;;;;;;30.40;42.70;100101.09;5037877;28;20048;-81
2022/07/21 07:45:46;;;;;;;10.93;4.68;;;;;;;30.68;40.98;100111.56;5072472;28;20468;-81
2022/07/21 07:48:12;;;;;;;7.40;4.05;;;;;;;30.57;40.76;100107.03;5037543;28;20075;-81
2022/07/21 07:50:38;;;;;;;7.18;4.03;;;;;;;30.63;40.77;100103.94;5072614;28;20045;-81
2022/07/21 07:53:03;;;;;;;8.10;3.90;;;;;;;30.84;39.87;100096.66;5054510;28;20047;-81
2022/07/21 07:55:29;;;;;;;5.72;3.78;;;;;;;31.18;39.06;100104.00;5071849;28;20051;-81
2022/07/21 07:57:54;;;;;;;8.20;4.05;;;;;;;31.20;39.70;100092.72;5054318;28;20051;-81
2022/07/21 08:00:20;;;;;;;7.03;4.30;;;;;;;31.38;38.64;100102.94;5053982;28;20056;-83
2022/07/21 08:02:45;;;;;;;7.90;3.75;;;;;;;31.62;38.44;100110.88;5054119;28;20053;-83
2022/07/21 08:05:11;;;;;;;7.75;3.80;;;;;;;31.40;37.11;100103.88;5053997;28;20086;-82
2022/07/21 08:07:38;;;;;;;5.47;3.60;;;;;;;31.15;37.64;100103.03;5071946;28;20055;-83
2022/07/21 08:10:09;;;;;;;7.07;3.60;;;;;;;30.97;38.78;100098.50;5037404;28;20046;-83
2022/07/21 08:12:35;;;;;;;4.75;3.60;;;;;;;31.01;36.21;100107.50;5053571;28;20052;-83
2022/07/21 08:15:01;;;;;;;6.78;3.75;;;;;;;30.92;36.42;100108.06;5054111;28;20036;-83
2022/07/21 08:17:27;;;;;;;5.00;3.22;;;;;;;31.00;35.58;100097.38;5071705;28;20386;-83
2022/07/21 08:19:53;;;;;;;7.28;3.40;;;;;;;31.37;36.17;100102.19;5037292;28;20082;-82
2022/07/21 08:22:19;;;;;;;6.18;3.20;;;;;;;31.46;34.44;100095.81;5071762;28;20121;-82
2022/07/21 08:24:44;;;;;;;7.72;3.55;;;;;;;31.53;36.50;100102.09;5037092;28;20078;-83
2022/07/21 08:27:10;;;;;;;4.55;3.00;;;;;;;31.66;34.31;100107.59;5053767;28;20102;-82
2022/07/21 08:29:35;;;;;;;6.85;3.42;;;;;;;31.89;32.51;100099.59;5071568;28;20040;-82
2022/07/21 08:32:01;;;;;;;6.20;3.10;;;;;;;31.99;31.84;100097.56;5054109;28;20044;-82
2022/07/21 08:34:27;;;;;;;6.80;3.30;;;;;;;32.19;31.52;100105.09;5053283;28;20528;-82
2022/07/21 08:36:53;;;;;;;9.60;3.17;;;;;;;32.14;29.31;100106.09;5053782;28;20123;-82
2022/07/21 08:39:19;;;;;;;5.75;2.58;;;;;;;32.50;26.54;100110.56;5020727;28;20127;-82
2022/07/21 08:41:44;;;;;;;4.55;2.50;;;;;;;32.88;27.78;100099.44;5071624;28;20099;-82
2022/07/21 08:44:10;;;;;;;7.75;2.78;;;;;;;32.83;26.21;100114.84;5053711;28;20025;-82
2022/07/21 08:46:38;;;;;;;6.18;2.80;;;;;;;33.09;27.45;100114.13;5070691;28;20505;-83
2022/07/21 08:49:03;;;;;;;8.13;3.08;;;;;;;33.14;26.64;100115.25;5053215;28;20135;-83
2022/07/21 08:51:35;;;;;;;6.60;2.85;;;;;;;33.00;26.34;100111.94;5071210;28;20458;-83
2022/07/21 08:54:02;;;;;;;7.38;2.80;;;;;;;33.25;26.78;100109.75;5071400;28;20043;-83
2022/07/21 08:56:28;;;;;;;5.95;2.78;;;;;;;33.33;25.62;100103.13;5071590;28;20082;-81
2022/07/21 08:58:54;;;;;;;11.10;3.20;;;;;;;33.20;25.91;100107.88;5053061;28;20101;-83
2022/07/21 09:01:20;;;;;;;6.15;3.17;;;;;;;33.39;26.25;100095.00;5071283;28;20036;-83
2022/07/21 09:03:45;;;;;;;7.30;3.00;;;;;;;33.55;27.31;100096.31;5052623;28;20070;-83
2022/07/21 09:06:15;;;;;;;5.60;2.83;;;;;;;33.68;28.18;100101.72;5053558;28;20501;-83
2022/07/21 09:08:45;;;;;;;7.25;3.15;;;;;;;33.89;25.83;100101.94;5053425;28;20072;-83
2022/07/21 09:11:22;;;;;;;9.82;2.85;;;;;;;34.18;26.64;100104.94;5071246;28;20103;-83
2022/07/21 09:14:04;;;;;;;5.10;3.10;;;;;;;34.02;27.51;100104.44;5036254;28;20090;-83
2022/07/21 09:16:40;;;;;;;8.30;2.90;;;;;;;34.05;26.65;100103.22;5071280;28;20045;-83
2022/07/21 09:19:07;;;;;;;7.80;3.17;;;;;;;33.82;27.38;100107.81;5070063;28;20037;-83
2022/07/21 09:21:35;;;;;;;6.22;2.88;;;;;;;34.13;27.91;100108.88;5036114;28;20448;-83
2022/07/21 09:24:21;;;;;;;5.47;2.63;;;;;;;34.08;26.67;100107.03;5069674;28;20044;-83
2022/07/21 09:27:04;;;;;;;5.85;3.05;;;;;;;34.23;26.42;100100.28;5053342;28;20051;-83
2022/07/21 09:29:50;;;;;;;6.93;3.13;;;;;;;34.36;26.17;100102.75;5052466;28;20045;-84
2022/07/21 09:32:25;;;;;;;2.83;2.40;;;;;;;34.57;23.69;100100.81;5036707;28;20151;-83
2022/07/21 09:34:58;;;;;;;5.75;2.65;;;;;;;34.55;25.05;100099.88;5052812;28;20044;-83
2022/07/21 09:37:24;;;;;;;4.93;3.13;;;;;;;34.79;24.23;100095.22;5053039;28;20051;-80
2022/07/21 09:39:56;;;;;;;6.75;2.85;;;;;;;35.13;22.71;100102.81;5070992;28;20040;-81
2022/07/21 09:42:27;;;;;;;3.75;2.65;;;;;;;35.48;22.64;100098.22;5053087;28;20049;-80
2022/07/21 09:45:01;;;;;;;6.82;2.70;;;;;;;35.54;20.92;100095.78;5052136;28;20045;-80
2022/07/21 09:47:29;;;;;;;6.50;3.15;;;;;;;35.94;22.90;100087.16;5053056;28;20444;-81
2022/07/21 09:49:55;;;;;;;4.28;2.70;;;;;;;35.80;23.74;100094.03;5069355;28;20036;-81
2022/07/21 09:52:26;;;;;;;4.65;2.85;;;;;;;35.16;23.45;100104.50;5071049;28;20041;-81
2022/07/21 09:54:53;;;;;;;5.10;2.75;;;;;;;35.18;23.34;100101.78;5053078;28;20542;-80
2022/07/21 09:57:20;;;;;;;4.95;2.83;;;;;;;35.35;22.21;100090.03;5052445;28;20498;-83
2022/07/21 09:59:49;;;;;;;6.00;2.60;;;;;;;35.39;22.42;100091.09;5072400;28;20036;-83
2022/07/21 10:02:22;;;;;;;6.05;2.80;;;;;;;35.10;23.29;100093.25;5056594;28;20044;-84
2022/07/21 10:04:58;;;;;;;7.40;2.67;;;;;;;35.26;21.54;100097.38;5074639;28;20090;-84
2022/07/21 10:07:24;;;;;;;4.55;2.80;;;;;;;35.54;21.40;100092.91;5056737;28;20409;-84
2022/07/21 10:09:49;;;;;;;6.38;2.63;;;;;;;35.66;22.01;100082.25;5039941;28;20048;-84
2022/07/21 10:12:16;;;;;;;3.88;2.70;;;;;;;35.38;22.25;100083.84;5056679;28;20579;-83
2022/07/21 10:14:43;;;;;;;3.85;2.67;;;;;;;35.74;22.10;100093.63;5039515;28;20036;-82
2022/07/21 10:17:08;;;;;;;5.55;2.67;;;;;;;35.60;22.06;100081.78;5073643;28;20068;-84
2022/07/21 10:19:40;;;;;;;3.83;2.60;;;;;;;36.06;19.43;100075.69;5074098;28;20718;-84
2022/07/21 10:22:37;;;;;;;6.25;2.85;;;;;;;36.23;20.45;100084.13;5056736;28;20040;-84
2022/07/21 10:25:03;;;;;;;5.10;3.03;;;;;;;36.32;21.25;100085.44;5056158;28;20044;-83
2022/07/21 10:27:29;;;;;;;6.57;3.17;;;;;;;36.08;20.78;100078.72;5040243;28;20045;-85
2022/07/21 10:30:00;;;;;;;4.75;2.78;;;;;;;36.19;20.68;100075.19;5058885;28;20402;-84
2022/07/21 10:32:33;;;;;;;4.82;2.80;;;;;;;35.89;19.91;100079.56;5040511;28;20412;-84
2022/07/21 10:35:02;;;;;;;4.32;2.75;;;;;;;35.83;20.20;100084.91;5073972;28;20049;-84
2022/07/21 10:37:39;;;;;;;6.15;3.05;;;;;;;35.98;19.89;100080.91;5073948;28;20505;-84
2022/07/21 10:40:25;;;;;;;7.40;3.13;;;;;;;36.46;19.96;100072.72;5073829;28;20045;-84
2022/07/21 10:43:00;;;;;;;4.78;2.65;;;;;;;36.76;19.47;100070.41;5042093;28;20571;-84
2022/07/21 10:45:58;;;;;;;5.53;3.00;;;;;;;36.73;19.01;100060.84;5073115;28;20078;-84
2022/07/21 10:48:36;;;;;;;4.05;2.80;;;;;;;36.30;20.12;100062.97;5012029;28;20059;-84
2022/07/21 10:51:03;;;;;;;5.15;3.17;;;;;;;36.54;20.11;100060.97;5055783;28;20048;-81
2022/07/21 10:53:28;;;;;;;7.20;2.80;;;;;;;36.61;20.39;100071.56;5073343;28;20410;-84
2022/07/21 10:55:55;;;;;;;5.90;2.80;;;;;;;36.49;19.87;100067.84;5073465;28;20049;-84
2022/07/21 10:58:26;;;;;;;7.25;2.80;;;;;;;36.78;19.87;100074.19;5055654;28;20048;-84
2022/07/21 11:01:02;;;;;;;4.93;2.70;;;;;;;36.87;18.73;100064.69;5072992;28;20055;-84
2022/07/21 11:03:30;;;;;;;4.15;2.72;;;;;;;36.58;18.83;100061.25;5055215;28;20053;-85
2022/07/21 11:06:31;;;;;;;6.97;3.00;;;;;;;36.41;20.61;100058.63;5055710;28;20047;-82
2022/07/21 11:09:02;;;;;;;3.60;3.00;;;;;;;36.58;19.83;100055.50;4991247;28;20050;-82
2022/07/21 11:11:33;;;;;;;5.15;2.67;;;;;;;36.73;20.04;100057.94;5058711;28;20056;-83
2022/07/21 11:14:10;;;;;;;6.78;2.78;;;;;;;36.74;19.76;100053.69;5054522;28;20049;-84
2022/07/21 11:17:02;;;;;;;5.97;2.72;;;;;;;36.44;21.13;100051.59;5072644;28;20037;-84
2022/07/21 11:19:49;;;;;;;5.80;2.80;;;;;;;36.89;21.35;100050.34;5056772;28;20045;-84
2022/07/21 11:22:44;;;;;;;5.32;2.50;;;;;;;37.24;21.90;100043.94;5042304;28;20071;-84
2022/07/21 11:25:09;;;;;;;3.75;2.70;;;;;;;37.50;20.82;100048.53;5072303;28;20513;-83
2022/07/21 11:27:36;;;;;;;3.25;2.72;;;;;;;37.04;19.32;100048.41;5073662;28;20052;-83
2022/07/21 11:30:09;;;;;;;8.43;2.70;;;;;;;37.03;20.31;100041.09;5055105;28;20055;-83
2022/07/21 11:32:35;;;;;;;5.68;2.80;;;;;;;36.82;19.70;100039.75;5038646;28;20044;-84